North Rim, AZ

1:42 PM MST on May 05, 2015 (GMT -0700)
RAWS | | Change Station
CLOSE
Current Station
Personal Weather Station
Location: Fredonia, AZ
Elevation: 8799 ft
Nearby Weather Stations

Elev 8799 ft 36.29 °N, 112.08 °W | Updated 34 minutes ago

Overcast
Overcast
43 °F
Feels Like 40 °F
N
5
Wind Variable Wind from WSW
Gusts 10.0 mph

Today
High -- | Low -- °F
--% Chance of Precip.
Yesterday
High -- | Low -- °F
Precip. -- in
5:31 AM 7:19 PM
Full, 97% visible
Pressure 29.99 in
Visibility 10.0 miles
Clouds Scattered Clouds 2800 ft
Mostly Cloudy 3700 ft
Overcast 5500 ft
Windchill 40 °F
Dew Point 39 °F
Humidity 87%
Rainfall in
Snow Depth Not available.
UV 4 out of 12
Pollen 2.90 out of 12
Air Quality Not available.
Flu Activity Local Activity
SPECI KGCN 052018Z 30008G15KT 260V320 10SM SCT028 BKN037 OVC055 12/04 A2999 RMK AO2 T01170044

More Conditions Fewer Conditions

Pressure 29.99 in
Visibility 10.0 miles
Clouds Scattered Clouds 2800 ft
Mostly Cloudy 3700 ft
Overcast 5500 ft
Windchill 40 °F
Dew Point 39 °F
Humidity 87%
Rainfall in
Snow Depth Not available.
UV 4 out of 12
Pollen 2.90 out of 12
Air Quality Not available.
Flu Activity Local Activity
SPECI KGCN 052018Z 30008G15KT 260V320 10SM SCT028 BKN037 OVC055 12/04 A2999 RMK AO2 T01170044

More Conditions Fewer Conditions

10-Day Weather Forecast

Almanac

Astronomy

May. 05, 2015 Rise Set
Actual Time
Civil Twilight
Nautical Twilight
Astronomical Twilight
Moon
Length of Visible Light
Length of Day
Tomorrow will be .
, % of the Moon is Illuminated

Today's Extremes

State Highs State Lows

Community

WunderPhotos

Upload Photos

1,818,975 photos uploaded!

WunderBlogs® & News

Nearby

Air Quality

  Air Quality AQ Index Pollutant
Not available.

Snow Depth

Station Depth Elevation

Earthquake Activity

City Distance Mag. Time & Date
Minimum magnitude displayed is 2.5.

Coastal Water Temperatures

Place Temperature

Stations

Nearby Weather Stations

Station Location Temp. Windchill Dew Point Humidity Wind Precip. Elev Updated Type